1887 NOT_NAMED (1887198N15119)


IBTrACS version v04r00. Visit IBTrACS website for data access.
Please direct all questions to the IBTrACS Q and A forum

Storm track - Intensity - Wind Radii - Intensity Data - Source Data - All data

Summary Information

Storm ID 1887198N15119
Start Jul 16 16Z
Landfall Jul 21 00Z, Jul 22 15Z
End Jul 23 04Z
ATCF IDs
Track status Best track data.

Storm track plot

Map of storm track

Intensity plots

No Intensity information for this storm


Radial wind information

No radial wind information for this storm


Position and Intensity Table

BASIN ISO_TIME_________ NATURE LAT LON
degrees north degrees east
WP 1887-07-16 16:00:00 NR 14.50 119.00
WP 18:00:00 NR 15.33 118.69
WP 21:00:00 NR 16.52 118.24
WP 1887-07-17 00:00:00 NR 17.56 117.83
WP 03:00:00 NR 18.39 117.49
WP 04:00:00 NR 18.60 117.40
WP 06:00:00 NR 18.92 117.25
WP 09:00:00 NR 19.18 117.09
WP 12:00:00 NR 19.27 117.00
WP 15:00:00 NR 19.29 116.92
WP 16:00:00 NR 19.30 116.90
WP 18:00:00 NR 19.38 116.83
WP 21:00:00 NR 19.48 116.73
WP 1887-07-18 00:00:00 NR 19.57 116.64
WP 03:00:00 NR 19.66 116.54
WP 04:00:00 NR 19.70 116.50
WP 06:00:00 NR 19.80 116.43
WP 09:00:00 NR 19.95 116.31
WP 12:00:00 NR 20.11 116.18
WP 15:00:00 NR 20.26 116.05
WP 16:00:00 NR 20.30 116.00
WP 18:00:00 NR 20.37 115.91
WP 21:00:00 NR 20.45 115.76
WP 1887-07-19 00:00:00 NR 20.52 115.61
WP 03:00:00 NR 20.58 115.45
WP 04:00:00 NR 20.60 115.40
WP 06:00:00 NR 20.65 115.31
WP 09:00:00 NR 20.73 115.16
WP 12:00:00 NR 20.81 115.02
WP 15:00:00 NR 20.88 114.86
WP 16:00:00 NR 20.90 114.80
WP 18:00:00 NR 20.95 114.71
WP 21:00:00 NR 21.01 114.58
WP 1887-07-20 00:00:00 NR 21.06 114.39
WP 03:00:00 NR 21.09 114.12
WP 04:00:00 NR 21.10 114.00
WP 06:00:00 NR 21.11 113.72
WP 09:00:00 NR 21.10 113.21
WP 12:00:00 NR 21.07 112.63
WP 15:00:00 NR 21.02 112.01
WP 16:00:00 NR 21.00 111.80
WP 18:00:00 NR 20.96 111.36
WP 21:00:00 NR 20.88 110.68
WP 1887-07-21 00:00:00 NR 20.80 110.02
WP 03:00:00 NR 20.72 109.46
WP 04:00:00 NR 20.70 109.30
WP 06:00:00 NR 20.67 109.06
WP 09:00:00 NR 20.65 108.80
WP 12:00:00 NR 20.63 108.61
WP 15:00:00 NR 20.61 108.46
WP 16:00:00 NR 20.60 108.40
WP 18:00:00 NR 20.57 108.25
WP 21:00:00 NR 20.52 108.03
WP 1887-07-22 00:00:00 NR 20.46 107.81
WP 03:00:00 NR 20.41 107.58
WP 04:00:00 NR 20.40 107.50
WP 06:00:00 NR 20.38 107.34
WP 09:00:00 NR 20.36 107.10
WP 12:00:00 NR 20.34 106.85
WP 15:00:00 NR 20.31 106.59
WP 16:00:00 NR 20.30 106.50
WP 18:00:00 NR 20.27 106.32
WP 21:00:00 NR 20.20 106.05
WP 1887-07-23 00:00:00 NR 20.12 105.77
WP 03:00:00 NR 20.03 105.49
WP 04:00:00 NR 20.00 105.40

Source Information

Agency Information
USA
TOKYO
CMA
HKO
NEWDELHI
REUNION
BOM
NADI
WELLINGTON
DS824
TD9636 cons_worldwide_trop_cyclone_18710101-19891231-003:Line=401
TD9635
NEUMANN
MLC

All available IBTrACS Data

SEASON BASIN SUBBASIN ISO_TIME_________ NATURE LAT LON DIST2LAND LANDFALL IFLAG USA SSHS TD9636 LAT TD9636 LON TD9636 STAGE STORM SPEED STORM DIR
Year degrees north degrees east km km 1 degrees north degrees east kts degrees
1887 WP MM 1887-07-16 16:00:00 NR 14.50 119.00 123 120 __________O___ -1 14.50 119.00 7 27 340
1887 WP MM 18:00:00 NR 15.33 118.69 129 122 __________P___ -1 15.33 118.69 7 26 340
1887 WP MM 21:00:00 NR 16.52 118.24 169 173 __________P___ -1 16.52 118.24 7 24 340
1887 WP MM 1887-07-17 00:00:00 NR 17.56 117.83 257 257 __________P___ -1 17.56 117.83 7 20 339
1887 WP MM 03:00:00 NR 18.39 117.49 309 309 __________P___ -1 18.39 117.49 7 17 338
1887 WP MM 04:00:00 NR 18.60 117.40 326 326 __________O___ -1 18.60 117.40 7 12 336
1887 WP MM 06:00:00 NR 18.92 117.25 358 358 __________P___ -1 18.92 117.25 7 8 334
1887 WP MM 09:00:00 NR 19.18 117.09 378 378 __________P___ -1 19.18 117.09 7 4 326
1887 WP MM 12:00:00 NR 19.27 117.00 391 391 __________P___ -1 19.27 117.00 7 2 305
1887 WP MM 15:00:00 NR 19.29 116.92 396 396 __________P___ -1 19.29 116.92 7 1 287
1887 WP MM 16:00:00 NR 19.30 116.90 396 383 __________O___ -1 19.30 116.90 7 2 313
1887 WP MM 18:00:00 NR 19.38 116.83 383 369 __________P___ -1 19.38 116.83 7 3 318
1887 WP MM 21:00:00 NR 19.48 116.73 369 356 __________P___ -1 19.48 116.73 7 3 316
1887 WP MM 1887-07-18 00:00:00 NR 19.57 116.64 356 343 __________P___ -1 19.57 116.64 7 3 315
1887 WP MM 03:00:00 NR 19.66 116.54 343 343 __________P___ -1 19.66 116.54 7 3 317
1887 WP MM 04:00:00 NR 19.70 116.50 343 330 __________O___ -1 19.70 116.50 3 3 322
1887 WP MM 06:00:00 NR 19.80 116.43 330 306 __________P___ -1 19.80 116.43 3 4 325
1887 WP MM 09:00:00 NR 19.95 116.31 306 293 __________P___ -1 19.95 116.31 3 4 324
1887 WP MM 12:00:00 NR 20.11 116.18 293 269 __________P___ -1 20.11 116.18 3 4 321
1887 WP MM 15:00:00 NR 20.26 116.05 269 269 __________P___ -1 20.26 116.05 3 4 318
1887 WP MM 16:00:00 NR 20.30 116.00 269 256 __________O___ -1 20.30 116.00 4 3 309
1887 WP MM 18:00:00 NR 20.37 115.91 256 252 __________P___ -1 20.37 115.91 4 3 303
1887 WP MM 21:00:00 NR 20.45 115.76 252 235 __________P___ -1 20.45 115.76 4 3 298
1887 WP MM 1887-07-19 00:00:00 NR 20.52 115.61 235 221 __________P___ -1 20.52 115.61 4 3 294
1887 WP MM 03:00:00 NR 20.58 115.45 221 218 __________P___ -1 20.58 115.45 4 3 294
1887 WP MM 04:00:00 NR 20.60 115.40 218 205 __________O___ -1 20.60 115.40 4 3 299
1887 WP MM 06:00:00 NR 20.65 115.31 205 201 __________P___ -1 20.65 115.31 4 3 301
1887 WP MM 09:00:00 NR 20.73 115.16 201 182 __________P___ -1 20.73 115.16 4 3 300
1887 WP MM 12:00:00 NR 20.81 115.02 182 168 __________P___ -1 20.81 115.02 4 3 297
1887 WP MM 15:00:00 NR 20.88 114.86 168 164 __________P___ -1 20.88 114.86 4 3 295
1887 WP MM 16:00:00 NR 20.90 114.80 164 161 __________O___ -1 20.90 114.80 4 3 297
1887 WP MM 18:00:00 NR 20.95 114.71 161 148 __________P___ -1 20.95 114.71 4 3 298
1887 WP MM 21:00:00 NR 21.01 114.58 148 134 __________P___ -1 21.01 114.58 4 3 291
1887 WP MM 1887-07-20 00:00:00 NR 21.06 114.39 134 134 __________P___ -1 21.06 114.39 4 4 281
1887 WP MM 03:00:00 NR 21.09 114.12 135 133 __________P___ -1 21.09 114.12 4 5 276
1887 WP MM 04:00:00 NR 21.10 114.00 133 115 __________O___ -1 21.10 114.00 4 7 272
1887 WP MM 06:00:00 NR 21.11 113.72 115 91 __________P___ -1 21.11 113.72 4 9 270
1887 WP MM 09:00:00 NR 21.10 113.21 91 73 __________P___ -1 21.10 113.21 4 10 268
1887 WP MM 12:00:00 NR 21.07 112.63 73 67 __________P___ -1 21.07 112.63 4 11 266
1887 WP MM 15:00:00 NR 21.02 112.01 69 59 __________P___ -1 21.02 112.01 4 12 265
1887 WP MM 16:00:00 NR 21.00 111.80 59 45 __________O___ -1 21.00 111.80 4 12 264
1887 WP MM 18:00:00 NR 20.96 111.36 45 35 __________P___ -1 20.96 111.36 4 13 263
1887 WP MM 21:00:00 NR 20.88 110.68 35 0 __________P___ -1 20.88 110.68 4 13 263
1887 WP MM 1887-07-21 00:00:00 NR 20.80 110.02 0 0 __________P___ -1 20.80 110.02 4 11 262
1887 WP MM 03:00:00 NR 20.72 109.46 23 33 __________P___ -1 20.72 109.46 4 10 262
1887 WP MM 04:00:00 NR 20.70 109.30 43 43 __________O___ -1 20.70 109.30 4 8 263
1887 WP MM 06:00:00 NR 20.67 109.06 63 73 __________P___ -1 20.67 109.06 4 6 264
1887 WP MM 09:00:00 NR 20.65 108.80 96 96 __________P___ -1 20.65 108.80 4 4 264
1887 WP MM 12:00:00 NR 20.63 108.61 108 105 __________P___ -1 20.63 108.61 4 3 263
1887 WP MM 15:00:00 NR 20.61 108.46 105 102 __________P___ -1 20.61 108.46 4 3 262
1887 WP MM 16:00:00 NR 20.60 108.40 102 98 __________O___ -1 20.60 108.40 4 4 258
1887 WP MM 18:00:00 NR 20.57 108.25 98 83 __________P___ -1 20.57 108.25 4 4 257
1887 WP MM 21:00:00 NR 20.52 108.03 83 69 __________P___ -1 20.52 108.03 4 4 256
1887 WP MM 1887-07-22 00:00:00 NR 20.46 107.81 69 69 __________P___ -1 20.46 107.81 4 4 256
1887 WP MM 03:00:00 NR 20.41 107.58 69 64 __________P___ -1 20.41 107.58 4 4 258
1887 WP MM 04:00:00 NR 20.40 107.50 64 56 __________O___ -1 20.40 107.50 4 4 262
1887 WP MM 06:00:00 NR 20.38 107.34 56 45 __________P___ -1 20.38 107.34 4 5 264
1887 WP MM 09:00:00 NR 20.36 107.10 45 20 __________P___ -1 20.36 107.10 4 5 265
1887 WP MM 12:00:00 NR 20.34 106.85 20 0 __________P___ -1 20.34 106.85 4 5 264
1887 WP MM 15:00:00 NR 20.31 106.59 0 0 __________P___ -1 20.31 106.59 4 5 262
1887 WP MM 16:00:00 NR 20.30 106.50 0 0 __________O___ -1 20.30 106.50 4 5 259
1887 WP MM 18:00:00 NR 20.27 106.32 0 0 __________P___ -1 20.27 106.32 4 5 257
1887 WP MM 21:00:00 NR 20.20 106.05 0 0 __________P___ -1 20.20 106.05 4 5 254
1887 WP MM 1887-07-23 00:00:00 NR 20.12 105.77 0 0 __________P___ -1 20.12 105.77 4 5 252
1887 WP MM 03:00:00 NR 20.03 105.49 0 0 __________P___ -1 20.03 105.49 4 6 251
1887 WP MM 04:00:00 NR 20.00 105.40 0 __________O___ -1 20.00 105.40 7 6 252